sensor_id;sensor_type;location;lat;lon;timestamp;P1;durP1;ratioP1;P2;durP2;ratioP2
6999;SDS011;3540;53.242;10.408;2023-04-06T00:01:40;14.40;;;6.33;;
6999;SDS011;3540;53.242;10.408;2023-04-06T00:04:06;14.80;;;6.60;;
6999;SDS011;3540;53.242;10.408;2023-04-06T00:06:32;13.27;;;5.90;;
6999;SDS011;3540;53.242;10.408;2023-04-06T00:08:58;11.53;;;5.60;;
6999;SDS011;3540;53.242;10.408;2023-04-06T00:11:25;33.57;;;14.10;;
6999;SDS011;3540;53.242;10.408;2023-04-06T00:13:50;34.27;;;15.13;;
6999;SDS011;3540;53.242;10.408;2023-04-06T00:16:16;49.70;;;22.70;;
6999;SDS011;3540;53.242;10.408;2023-04-06T00:18:42;41.40;;;18.27;;
6999;SDS011;3540;53.242;10.408;2023-04-06T00:21:08;30.07;;;15.13;;
6999;SDS011;3540;53.242;10.408;2023-04-06T00:23:36;40.10;;;17.93;;
6999;SDS011;3540;53.242;10.408;2023-04-06T00:26:02;21.10;;;10.03;;
6999;SDS011;3540;53.242;10.408;2023-04-06T00:28:27;13.93;;;6.80;;
6999;SDS011;3540;53.242;10.408;2023-04-06T00:30:54;10.77;;;4.80;;
6999;SDS011;3540;53.242;10.408;2023-04-06T00:33:20;7.57;;;4.03;;
6999;SDS011;3540;53.242;10.408;2023-04-06T00:35:47;8.60;;;4.80;;
6999;SDS011;3540;53.242;10.408;2023-04-06T00:38:14;9.10;;;4.87;;
6999;SDS011;3540;53.242;10.408;2023-04-06T00:40:40;8.73;;;4.80;;
6999;SDS011;3540;53.242;10.408;2023-04-06T00:43:06;8.87;;;4.97;;
6999;SDS011;3540;53.242;10.408;2023-04-06T00:45:34;10.27;;;4.70;;
6999;SDS011;3540;53.242;10.408;2023-04-06T00:47:59;10.20;;;4.50;;
6999;SDS011;3540;53.242;10.408;2023-04-06T00:50:26;8.83;;;4.20;;
6999;SDS011;3540;53.242;10.408;2023-04-06T00:52:52;6.47;;;4.20;;
6999;SDS011;3540;53.242;10.408;2023-04-06T00:55:19;7.40;;;3.93;;
6999;SDS011;3540;53.242;10.408;2023-04-06T00:57:45;6.93;;;4.13;;
6999;SDS011;3540;53.242;10.408;2023-04-06T01:00:11;7.27;;;4.43;;
6999;SDS011;3540;53.242;10.408;2023-04-06T01:02:37;6.27;;;4.00;;
6999;SDS011;3540;53.242;10.408;2023-04-06T01:05:03;7.53;;;3.73;;
6999;SDS011;3540;53.242;10.408;2023-04-06T01:07:29;8.30;;;4.17;;
6999;SDS011;3540;53.242;10.408;2023-04-06T01:09:55;8.40;;;4.27;;
6999;SDS011;3540;53.242;10.408;2023-04-06T01:12:21;6.77;;;4.03;;
6999;SDS011;3540;53.242;10.408;2023-04-06T01:14:47;9.23;;;4.63;;
6999;SDS011;3540;53.242;10.408;2023-04-06T01:17:13;7.53;;;4.73;;
6999;SDS011;3540;53.242;10.408;2023-04-06T01:19:39;7.53;;;4.30;;
6999;SDS011;3540;53.242;10.408;2023-04-06T01:22:05;7.50;;;4.80;;
6999;SDS011;3540;53.242;10.408;2023-04-06T01:24:31;7.50;;;4.53;;
6999;SDS011;3540;53.242;10.408;2023-04-06T01:26:57;8.53;;;4.60;;
6999;SDS011;3540;53.242;10.408;2023-04-06T01:29:23;9.93;;;4.27;;
6999;SDS011;3540;53.242;10.408;2023-04-06T01:31:49;8.63;;;4.30;;
6999;SDS011;3540;53.242;10.408;2023-04-06T01:34:14;9.47;;;4.50;;
6999;SDS011;3540;53.242;10.408;2023-04-06T01:36:40;9.13;;;4.80;;
6999;SDS011;3540;53.242;10.408;2023-04-06T01:39:06;7.27;;;4.77;;
6999;SDS011;3540;53.242;10.408;2023-04-06T01:41:31;9.67;;;4.43;;
6999;SDS011;3540;53.242;10.408;2023-04-06T01:43:57;6.40;;;4.70;;
6999;SDS011;3540;53.242;10.408;2023-04-06T01:46:23;8.97;;;4.50;;
6999;SDS011;3540;53.242;10.408;2023-04-06T01:48:49;8.90;;;5.90;;
6999;SDS011;3540;53.242;10.408;2023-04-06T01:51:15;11.57;;;5.50;;
6999;SDS011;3540;53.242;10.408;2023-04-06T01:53:40;8.93;;;5.07;;
6999;SDS011;3540;53.242;10.408;2023-04-06T01:56:06;8.83;;;4.77;;
6999;SDS011;3540;53.242;10.408;2023-04-06T01:58:32;11.30;;;4.73;;
6999;SDS011;3540;53.242;10.408;2023-04-06T02:00:58;12.13;;;5.60;;
6999;SDS011;3540;53.242;10.408;2023-04-06T02:03:24;11.53;;;6.13;;
6999;SDS011;3540;53.242;10.408;2023-04-06T02:05:50;8.67;;;4.83;;
6999;SDS011;3540;53.242;10.408;2023-04-06T02:08:15;9.10;;;4.87;;
6999;SDS011;3540;53.242;10.408;2023-04-06T02:10:41;8.13;;;5.00;;
6999;SDS011;3540;53.242;10.408;2023-04-06T02:13:07;6.07;;;4.60;;
6999;SDS011;3540;53.242;10.408;2023-04-06T02:15:32;12.90;;;5.07;;
6999;SDS011;3540;53.242;10.408;2023-04-06T02:17:58;8.40;;;5.13;;
6999;SDS011;3540;53.242;10.408;2023-04-06T02:20:25;8.10;;;5.07;;
6999;SDS011;3540;53.242;10.408;2023-04-06T02:22:50;7.17;;;4.70;;
6999;SDS011;3540;53.242;10.408;2023-04-06T02:25:16;9.67;;;5.03;;
6999;SDS011;3540;53.242;10.408;2023-04-06T02:27:42;9.73;;;5.00;;
6999;SDS011;3540;53.242;10.408;2023-04-06T02:30:07;7.90;;;4.80;;
6999;SDS011;3540;53.242;10.408;2023-04-06T02:32:33;7.77;;;5.47;;
6999;SDS011;3540;53.242;10.408;2023-04-06T02:34:59;8.83;;;5.30;;
6999;SDS011;3540;53.242;10.408;2023-04-06T02:37:25;7.97;;;5.00;;
6999;SDS011;3540;53.242;10.408;2023-04-06T02:39:51;6.73;;;4.43;;
6999;SDS011;3540;53.242;10.408;2023-04-06T02:42:16;10.50;;;4.83;;
6999;SDS011;3540;53.242;10.408;2023-04-06T02:44:42;7.73;;;5.13;;
6999;SDS011;3540;53.242;10.408;2023-04-06T02:47:08;9.93;;;5.00;;
6999;SDS011;3540;53.242;10.408;2023-04-06T02:49:34;6.57;;;4.97;;
6999;SDS011;3540;53.242;10.408;2023-04-06T02:52:00;8.03;;;5.07;;
6999;SDS011;3540;53.242;10.408;2023-04-06T02:54:26;7.97;;;5.10;;
6999;SDS011;3540;53.242;10.408;2023-04-06T02:56:52;9.53;;;5.40;;
6999;SDS011;3540;53.242;10.408;2023-04-06T02:59:17;11.17;;;5.43;;
6999;SDS011;3540;53.242;10.408;2023-04-06T03:01:43;7.83;;;5.13;;
6999;SDS011;3540;53.242;10.408;2023-04-06T03:04:09;8.37;;;5.80;;
6999;SDS011;3540;53.242;10.408;2023-04-06T03:06:35;9.57;;;5.53;;
6999;SDS011;3540;53.242;10.408;2023-04-06T03:09:01;9.33;;;5.30;;
6999;SDS011;3540;53.242;10.408;2023-04-06T03:11:27;12.43;;;5.60;;
6999;SDS011;3540;53.242;10.408;2023-04-06T03:13:53;9.60;;;6.23;;
6999;SDS011;3540;53.242;10.408;2023-04-06T03:16:18;10.87;;;5.47;;
6999;SDS011;3540;53.242;10.408;2023-04-06T03:18:44;11.90;;;5.60;;
6999;SDS011;3540;53.242;10.408;2023-04-06T03:21:10;8.10;;;5.53;;
6999;SDS011;3540;53.242;10.408;2023-04-06T03:23:35;7.53;;;5.37;;
6999;SDS011;3540;53.242;10.408;2023-04-06T03:26:01;11.07;;;5.47;;
6999;SDS011;3540;53.242;10.408;2023-04-06T03:28:28;8.43;;;5.50;;
6999;SDS011;3540;53.242;10.408;2023-04-06T03:30:54;7.23;;;5.00;;
6999;SDS011;3540;53.242;10.408;2023-04-06T03:33:19;7.93;;;5.40;;
6999;SDS011;3540;53.242;10.408;2023-04-06T03:35:45;7.43;;;5.17;;
6999;SDS011;3540;53.242;10.408;2023-04-06T03:38:11;10.83;;;5.90;;
6999;SDS011;3540;53.242;10.408;2023-04-06T03:40:36;8.40;;;5.40;;
6999;SDS011;3540;53.242;10.408;2023-04-06T03:43:03;10.07;;;5.30;;
6999;SDS011;3540;53.242;10.408;2023-04-06T03:45:29;8.03;;;5.50;;
6999;SDS011;3540;53.242;10.408;2023-04-06T03:47:54;8.87;;;5.20;;
6999;SDS011;3540;53.242;10.408;2023-04-06T03:50:20;9.20;;;5.47;;
6999;SDS011;3540;53.242;10.408;2023-04-06T03:52:46;7.90;;;5.20;;
6999;SDS011;3540;53.242;10.408;2023-04-06T03:55:11;7.87;;;5.17;;
6999;SDS011;3540;53.242;10.408;2023-04-06T03:57:37;10.73;;;5.07;;
6999;SDS011;3540;53.242;10.408;2023-04-06T04:00:03;10.43;;;5.80;;
6999;SDS011;3540;53.242;10.408;2023-04-06T04:02:29;8.77;;;5.70;;
6999;SDS011;3540;53.242;10.408;2023-04-06T04:04:55;7.37;;;5.20;;
6999;SDS011;3540;53.242;10.408;2023-04-06T04:07:21;9.73;;;5.70;;
6999;SDS011;3540;53.242;10.408;2023-04-06T04:09:46;15.20;;;5.73;;
6999;SDS011;3540;53.242;10.408;2023-04-06T04:12:12;11.33;;;5.90;;
6999;SDS011;3540;53.242;10.408;2023-04-06T04:14:39;6.97;;;5.20;;
6999;SDS011;3540;53.242;10.408;2023-04-06T04:17:05;9.80;;;5.60;;
6999;SDS011;3540;53.242;10.408;2023-04-06T04:19:30;8.33;;;5.80;;
6999;SDS011;3540;53.242;10.408;2023-04-06T04:21:56;8.93;;;5.97;;
6999;SDS011;3540;53.242;10.408;2023-04-06T04:24:22;9.70;;;5.87;;
6999;SDS011;3540;53.242;10.408;2023-04-06T04:26:47;9.10;;;5.83;;
6999;SDS011;3540;53.242;10.408;2023-04-06T04:29:13;8.47;;;5.57;;
6999;SDS011;3540;53.242;10.408;2023-04-06T04:31:40;12.07;;;5.60;;
6999;SDS011;3540;53.242;10.408;2023-04-06T04:34:05;11.50;;;5.90;;
6999;SDS011;3540;53.242;10.408;2023-04-06T04:36:31;8.20;;;5.57;;
6999;SDS011;3540;53.242;10.408;2023-04-06T04:38:57;8.97;;;5.77;;
6999;SDS011;3540;53.242;10.408;2023-04-06T04:41:23;14.93;;;6.27;;
6999;SDS011;3540;53.242;10.408;2023-04-06T04:43:49;9.43;;;6.20;;
6999;SDS011;3540;53.242;10.408;2023-04-06T04:46:15;13.17;;;6.70;;
6999;SDS011;3540;53.242;10.408;2023-04-06T04:48:40;11.90;;;6.50;;
6999;SDS011;3540;53.242;10.408;2023-04-06T04:51:06;10.83;;;6.50;;
6999;SDS011;3540;53.242;10.408;2023-04-06T04:53:31;10.57;;;6.90;;
6999;SDS011;3540;53.242;10.408;2023-04-06T04:55:57;10.97;;;6.33;;
6999;SDS011;3540;53.242;10.408;2023-04-06T04:58:23;11.53;;;6.47;;
6999;SDS011;3540;53.242;10.408;2023-04-06T05:00:49;10.07;;;6.40;;
6999;SDS011;3540;53.242;10.408;2023-04-06T05:03:21;10.33;;;6.90;;
6999;SDS011;3540;53.242;10.408;2023-04-06T05:05:49;10.23;;;7.10;;
6999;SDS011;3540;53.242;10.408;2023-04-06T05:08:15;9.77;;;7.50;;
6999;SDS011;3540;53.242;10.408;2023-04-06T05:10:41;11.60;;;6.77;;
6999;SDS011;3540;53.242;10.408;2023-04-06T05:13:07;11.50;;;7.23;;
6999;SDS011;3540;53.242;10.408;2023-04-06T05:15:33;18.93;;;7.63;;
6999;SDS011;3540;53.242;10.408;2023-04-06T05:17:59;16.77;;;8.03;;
6999;SDS011;3540;53.242;10.408;2023-04-06T05:20:26;11.17;;;7.80;;
6999;SDS011;3540;53.242;10.408;2023-04-06T05:22:52;12.03;;;7.10;;
6999;SDS011;3540;53.242;10.408;2023-04-06T05:25:18;9.77;;;6.97;;
6999;SDS011;3540;53.242;10.408;2023-04-06T05:27:44;11.77;;;7.30;;
6999;SDS011;3540;53.242;10.408;2023-04-06T05:30:10;14.23;;;7.27;;
6999;SDS011;3540;53.242;10.408;2023-04-06T05:32:36;14.10;;;7.90;;
6999;SDS011;3540;53.242;10.408;2023-04-06T05:35:01;11.00;;;7.60;;
6999;SDS011;3540;53.242;10.408;2023-04-06T05:37:27;14.13;;;7.53;;
6999;SDS011;3540;53.242;10.408;2023-04-06T05:39:53;10.50;;;7.70;;
6999;SDS011;3540;53.242;10.408;2023-04-06T05:42:19;12.53;;;8.13;;
6999;SDS011;3540;53.242;10.408;2023-04-06T05:44:45;12.60;;;7.90;;
6999;SDS011;3540;53.242;10.408;2023-04-06T05:47:10;11.23;;;7.73;;
6999;SDS011;3540;53.242;10.408;2023-04-06T05:49:36;13.87;;;8.00;;
6999;SDS011;3540;53.242;10.408;2023-04-06T05:52:02;14.43;;;7.30;;
6999;SDS011;3540;53.242;10.408;2023-04-06T05:54:29;9.93;;;7.57;;
6999;SDS011;3540;53.242;10.408;2023-04-06T05:56:55;12.40;;;7.73;;
6999;SDS011;3540;53.242;10.408;2023-04-06T05:59:20;18.33;;;7.60;;
6999;SDS011;3540;53.242;10.408;2023-04-06T06:01:46;14.50;;;7.60;;
6999;SDS011;3540;53.242;10.408;2023-04-06T06:04:12;14.73;;;7.70;;
6999;SDS011;3540;53.242;10.408;2023-04-06T06:06:37;23.10;;;7.90;;
6999;SDS011;3540;53.242;10.408;2023-04-06T06:09:03;21.40;;;7.70;;
6999;SDS011;3540;53.242;10.408;2023-04-06T06:11:29;13.97;;;7.27;;
6999;SDS011;3540;53.242;10.408;2023-04-06T06:13:55;9.53;;;6.23;;
6999;SDS011;3540;53.242;10.408;2023-04-06T06:16:21;10.63;;;6.83;;
6999;SDS011;3540;53.242;10.408;2023-04-06T06:18:46;10.33;;;6.23;;
6999;SDS011;3540;53.242;10.408;2023-04-06T06:21:12;8.93;;;6.33;;
6999;SDS011;3540;53.242;10.408;2023-04-06T06:23:38;12.40;;;5.93;;
6999;SDS011;3540;53.242;10.408;2023-04-06T06:26:04;8.73;;;6.27;;
6999;SDS011;3540;53.242;10.408;2023-04-06T06:28:30;11.53;;;6.10;;
6999;SDS011;3540;53.242;10.408;2023-04-06T06:30:56;8.47;;;6.23;;
6999;SDS011;3540;53.242;10.408;2023-04-06T06:33:22;12.13;;;6.00;;
6999;SDS011;3540;53.242;10.408;2023-04-06T06:35:48;10.07;;;6.13;;
6999;SDS011;3540;53.242;10.408;2023-04-06T06:38:14;17.03;;;6.10;;
6999;SDS011;3540;53.242;10.408;2023-04-06T06:40:40;11.47;;;5.80;;
6999;SDS011;3540;53.242;10.408;2023-04-06T06:43:06;12.17;;;5.57;;
6999;SDS011;3540;53.242;10.408;2023-04-06T06:45:32;10.33;;;4.97;;
6999;SDS011;3540;53.242;10.408;2023-04-06T06:47:57;7.93;;;4.73;;
6999;SDS011;3540;53.242;10.408;2023-04-06T06:50:23;8.03;;;5.00;;
6999;SDS011;3540;53.242;10.408;2023-04-06T06:52:49;7.33;;;4.73;;
6999;SDS011;3540;53.242;10.408;2023-04-06T06:55:14;6.50;;;4.43;;
6999;SDS011;3540;53.242;10.408;2023-04-06T06:57:40;8.27;;;4.80;;
6999;SDS011;3540;53.242;10.408;2023-04-06T07:00:07;11.47;;;5.20;;
6999;SDS011;3540;53.242;10.408;2023-04-06T07:02:34;7.90;;;4.57;;
6999;SDS011;3540;53.242;10.408;2023-04-06T07:05:01;7.87;;;4.60;;
6999;SDS011;3540;53.242;10.408;2023-04-06T07:07:27;10.03;;;6.80;;
6999;SDS011;3540;53.242;10.408;2023-04-06T07:09:52;8.40;;;5.17;;
6999;SDS011;3540;53.242;10.408;2023-04-06T07:12:18;6.10;;;4.40;;
6999;SDS011;3540;53.242;10.408;2023-04-06T07:14:44;8.13;;;4.57;;
6999;SDS011;3540;53.242;10.408;2023-04-06T07:17:09;9.60;;;5.10;;
6999;SDS011;3540;53.242;10.408;2023-04-06T07:19:36;13.53;;;7.10;;
6999;SDS011;3540;53.242;10.408;2023-04-06T07:22:01;13.80;;;7.47;;
6999;SDS011;3540;53.242;10.408;2023-04-06T07:24:28;16.67;;;7.90;;
6999;SDS011;3540;53.242;10.408;2023-04-06T07:26:54;7.80;;;4.30;;
6999;SDS011;3540;53.242;10.408;2023-04-06T07:29:21;6.47;;;4.00;;
6999;SDS011;3540;53.242;10.408;2023-04-06T07:31:47;11.97;;;4.43;;
6999;SDS011;3540;53.242;10.408;2023-04-06T07:34:14;8.87;;;4.90;;
6999;SDS011;3540;53.242;10.408;2023-04-06T07:36:40;7.90;;;4.47;;
6999;SDS011;3540;53.242;10.408;2023-04-06T07:39:06;6.80;;;5.03;;
6999;SDS011;3540;53.242;10.408;2023-04-06T07:41:32;7.70;;;4.17;;
6999;SDS011;3540;53.242;10.408;2023-04-06T07:43:58;6.97;;;3.97;;
6999;SDS011;3540;53.242;10.408;2023-04-06T07:46:24;8.63;;;4.33;;
6999;SDS011;3540;53.242;10.408;2023-04-06T07:48:50;9.33;;;4.70;;
6999;SDS011;3540;53.242;10.408;2023-04-06T07:51:16;6.20;;;3.80;;
6999;SDS011;3540;53.242;10.408;2023-04-06T07:53:43;6.90;;;3.77;;
6999;SDS011;3540;53.242;10.408;2023-04-06T07:56:09;6.53;;;4.03;;
6999;SDS011;3540;53.242;10.408;2023-04-06T07:58:35;8.73;;;3.90;;
6999;SDS011;3540;53.242;10.408;2023-04-06T08:01:01;8.30;;;4.03;;
6999;SDS011;3540;53.242;10.408;2023-04-06T08:03:27;9.33;;;3.87;;
6999;SDS011;3540;53.242;10.408;2023-04-06T08:05:52;6.67;;;3.80;;
6999;SDS011;3540;53.242;10.408;2023-04-06T08:08:18;6.77;;;4.20;;
6999;SDS011;3540;53.242;10.408;2023-04-06T08:10:46;8.57;;;4.13;;
6999;SDS011;3540;53.242;10.408;2023-04-06T08:13:12;6.90;;;5.00;;
6999;SDS011;3540;53.242;10.408;2023-04-06T08:15:38;8.27;;;3.87;;
6999;SDS011;3540;53.242;10.408;2023-04-06T08:18:03;6.37;;;4.00;;
6999;SDS011;3540;53.242;10.408;2023-04-06T08:20:30;5.47;;;3.53;;
6999;SDS011;3540;53.242;10.408;2023-04-06T08:22:56;6.73;;;3.33;;
6999;SDS011;3540;53.242;10.408;2023-04-06T08:25:21;5.37;;;3.50;;
6999;SDS011;3540;53.242;10.408;2023-04-06T08:27:47;9.63;;;3.17;;
6999;SDS011;3540;53.242;10.408;2023-04-06T08:30:13;10.83;;;4.03;;
6999;SDS011;3540;53.242;10.408;2023-04-06T08:32:41;12.90;;;4.17;;
6999;SDS011;3540;53.242;10.408;2023-04-06T08:35:07;6.87;;;3.80;;
6999;SDS011;3540;53.242;10.408;2023-04-06T08:37:33;6.77;;;4.60;;
6999;SDS011;3540;53.242;10.408;2023-04-06T08:39:58;9.13;;;3.87;;
6999;SDS011;3540;53.242;10.408;2023-04-06T08:42:25;10.97;;;4.33;;
6999;SDS011;3540;53.242;10.408;2023-04-06T08:44:51;10.47;;;4.40;;
6999;SDS011;3540;53.242;10.408;2023-04-06T08:47:18;7.97;;;3.30;;
6999;SDS011;3540;53.242;10.408;2023-04-06T08:49:43;7.40;;;3.57;;
6999;SDS011;3540;53.242;10.408;2023-04-06T08:52:10;4.93;;;3.30;;
6999;SDS011;3540;53.242;10.408;2023-04-06T08:54:37;7.87;;;3.73;;
6999;SDS011;3540;53.242;10.408;2023-04-06T08:57:03;6.83;;;3.50;;
6999;SDS011;3540;53.242;10.408;2023-04-06T08:59:31;4.50;;;3.57;;
6999;SDS011;3540;53.242;10.408;2023-04-06T09:01:57;7.00;;;3.40;;
6999;SDS011;3540;53.242;10.408;2023-04-06T09:04:24;7.30;;;3.47;;
6999;SDS011;3540;53.242;10.408;2023-04-06T09:06:51;6.23;;;3.87;;
6999;SDS011;3540;53.242;10.408;2023-04-06T09:09:17;8.13;;;4.07;;
6999;SDS011;3540;53.242;10.408;2023-04-06T09:11:44;9.63;;;3.67;;
6999;SDS011;3540;53.242;10.408;2023-04-06T09:14:13;7.33;;;3.80;;
6999;SDS011;3540;53.242;10.408;2023-04-06T09:16:44;6.90;;;3.80;;
6999;SDS011;3540;53.242;10.408;2023-04-06T09:19:10;8.97;;;4.27;;
6999;SDS011;3540;53.242;10.408;2023-04-06T09:21:37;4.90;;;3.60;;
6999;SDS011;3540;53.242;10.408;2023-04-06T09:24:05;5.73;;;3.90;;
6999;SDS011;3540;53.242;10.408;2023-04-06T09:26:32;6.07;;;3.47;;
6999;SDS011;3540;53.242;10.408;2023-04-06T09:29:09;6.53;;;3.60;;
6999;SDS011;3540;53.242;10.408;2023-04-06T09:31:34;6.53;;;4.00;;
6999;SDS011;3540;53.242;10.408;2023-04-06T09:34:00;5.90;;;4.13;;
6999;SDS011;3540;53.242;10.408;2023-04-06T09:36:30;4.20;;;3.80;;
6999;SDS011;3540;53.242;10.408;2023-04-06T09:39:03;5.53;;;4.30;;
6999;SDS011;3540;53.242;10.408;2023-04-06T09:44:03;8.77;;;4.60;;
6999;SDS011;3540;53.242;10.408;2023-04-06T09:46:31;8.17;;;4.27;;
6999;SDS011;3540;53.242;10.408;2023-04-06T09:49:08;7.37;;;4.10;;
6999;SDS011;3540;53.242;10.408;2023-04-06T09:54:04;6.10;;;3.93;;
6999;SDS011;3540;53.242;10.408;2023-04-06T09:56:34;6.90;;;4.70;;
6999;SDS011;3540;53.242;10.408;2023-04-06T09:59:11;5.30;;;4.27;;
6999;SDS011;3540;53.242;10.408;2023-04-06T10:01:39;6.50;;;4.33;;
6999;SDS011;3540;53.242;10.408;2023-04-06T10:06:35;5.63;;;4.33;;
6999;SDS011;3540;53.242;10.408;2023-04-06T10:09:02;8.80;;;4.30;;
6999;SDS011;3540;53.242;10.408;2023-04-06T10:11:30;6.87;;;4.60;;
6999;SDS011;3540;53.242;10.408;2023-04-06T10:13:56;11.13;;;4.67;;
6999;SDS011;3540;53.242;10.408;2023-04-06T10:16:22;6.83;;;4.57;;
6999;SDS011;3540;53.242;10.408;2023-04-06T10:18:52;9.80;;;4.80;;
6999;SDS011;3540;53.242;10.408;2023-04-06T10:21:23;6.07;;;4.70;;
6999;SDS011;3540;53.242;10.408;2023-04-06T10:23:52;7.93;;;4.80;;
6999;SDS011;3540;53.242;10.408;2023-04-06T10:26:22;7.67;;;4.93;;
6999;SDS011;3540;53.242;10.408;2023-04-06T10:28:49;7.83;;;4.73;;
6999;SDS011;3540;53.242;10.408;2023-04-06T10:31:23;7.60;;;4.43;;
6999;SDS011;3540;53.242;10.408;2023-04-06T10:33:53;5.87;;;4.20;;
6999;SDS011;3540;53.242;10.408;2023-04-06T10:36:24;5.97;;;4.53;;
6999;SDS011;3540;53.242;10.408;2023-04-06T10:38:58;7.33;;;4.27;;
6999;SDS011;3540;53.242;10.408;2023-04-06T10:41:32;7.17;;;4.87;;
6999;SDS011;3540;53.242;10.408;2023-04-06T10:43:59;8.43;;;5.13;;
6999;SDS011;3540;53.242;10.408;2023-04-06T10:46:26;7.20;;;4.77;;
6999;SDS011;3540;53.242;10.408;2023-04-06T10:48:53;6.73;;;4.80;;
6999;SDS011;3540;53.242;10.408;2023-04-06T10:51:19;6.77;;;4.80;;
6999;SDS011;3540;53.242;10.408;2023-04-06T10:53:52;8.00;;;4.70;;
6999;SDS011;3540;53.242;10.408;2023-04-06T10:56:21;6.33;;;5.00;;
6999;SDS011;3540;53.242;10.408;2023-04-06T10:58:50;6.47;;;4.50;;
6999;SDS011;3540;53.242;10.408;2023-04-06T11:01:18;8.67;;;5.17;;
6999;SDS011;3540;53.242;10.408;2023-04-06T11:08:46;9.30;;;4.50;;
6999;SDS011;3540;53.242;10.408;2023-04-06T11:11:13;8.43;;;5.20;;
6999;SDS011;3540;53.242;10.408;2023-04-06T11:16:20;7.63;;;4.73;;
6999;SDS011;3540;53.242;10.408;2023-04-06T11:21:31;8.23;;;5.10;;
6999;SDS011;3540;53.242;10.408;2023-04-06T11:26:41;8.70;;;5.00;;
6999;SDS011;3540;53.242;10.408;2023-04-06T11:29:14;5.83;;;5.10;;
6999;SDS011;3540;53.242;10.408;2023-04-06T11:31:42;7.50;;;5.07;;
6999;SDS011;3540;53.242;10.408;2023-04-06T11:34:16;7.27;;;4.90;;
6999;SDS011;3540;53.242;10.408;2023-04-06T11:36:46;7.23;;;4.97;;
6999;SDS011;3540;53.242;10.408;2023-04-06T11:39:13;7.83;;;5.13;;
6999;SDS011;3540;53.242;10.408;2023-04-06T11:41:47;6.77;;;5.13;;
6999;SDS011;3540;53.242;10.408;2023-04-06T11:44:26;7.50;;;5.23;;
6999;SDS011;3540;53.242;10.408;2023-04-06T11:47:04;9.23;;;5.13;;
6999;SDS011;3540;53.242;10.408;2023-04-06T11:49:38;6.90;;;4.70;;
6999;SDS011;3540;53.242;10.408;2023-04-06T11:54:44;10.80;;;5.80;;
6999;SDS011;3540;53.242;10.408;2023-04-06T11:57:11;7.00;;;5.53;;
6999;SDS011;3540;53.242;10.408;2023-04-06T11:59:37;6.53;;;5.40;;
6999;SDS011;3540;53.242;10.408;2023-04-06T12:02:03;8.27;;;5.30;;
6999;SDS011;3540;53.242;10.408;2023-04-06T12:04:29;8.23;;;5.47;;
6999;SDS011;3540;53.242;10.408;2023-04-06T12:06:55;11.67;;;6.33;;
6999;SDS011;3540;53.242;10.408;2023-04-06T12:09:21;8.97;;;6.50;;
6999;SDS011;3540;53.242;10.408;2023-04-06T12:11:46;8.30;;;5.57;;
6999;SDS011;3540;53.242;10.408;2023-04-06T12:14:12;9.47;;;5.97;;
6999;SDS011;3540;53.242;10.408;2023-04-06T12:16:38;8.50;;;5.30;;
6999;SDS011;3540;53.242;10.408;2023-04-06T12:19:04;9.63;;;6.70;;
6999;SDS011;3540;53.242;10.408;2023-04-06T12:21:30;7.17;;;5.73;;
6999;SDS011;3540;53.242;10.408;2023-04-06T12:23:57;7.43;;;5.70;;
6999;SDS011;3540;53.242;10.408;2023-04-06T12:26:23;9.63;;;6.57;;
6999;SDS011;3540;53.242;10.408;2023-04-06T12:28:49;8.13;;;6.03;;
6999;SDS011;3540;53.242;10.408;2023-04-06T12:31:16;7.83;;;5.70;;
6999;SDS011;3540;53.242;10.408;2023-04-06T12:33:42;8.30;;;5.90;;
6999;SDS011;3540;53.242;10.408;2023-04-06T12:36:13;8.47;;;6.67;;
6999;SDS011;3540;53.242;10.408;2023-04-06T12:38:40;8.50;;;6.30;;
6999;SDS011;3540;53.242;10.408;2023-04-06T12:41:06;8.53;;;6.30;;
6999;SDS011;3540;53.242;10.408;2023-04-06T12:43:32;10.33;;;6.13;;
6999;SDS011;3540;53.242;10.408;2023-04-06T12:45:58;9.33;;;6.10;;
6999;SDS011;3540;53.242;10.408;2023-04-06T12:48:24;7.57;;;5.77;;
6999;SDS011;3540;53.242;10.408;2023-04-06T12:50:59;8.17;;;6.57;;
6999;SDS011;3540;53.242;10.408;2023-04-06T12:53:26;9.50;;;6.97;;
6999;SDS011;3540;53.242;10.408;2023-04-06T12:55:53;9.27;;;5.70;;
6999;SDS011;3540;53.242;10.408;2023-04-06T12:58:19;8.63;;;6.50;;
6999;SDS011;3540;53.242;10.408;2023-04-06T13:00:47;7.60;;;6.30;;
6999;SDS011;3540;53.242;10.408;2023-04-06T13:03:13;8.07;;;6.17;;
6999;SDS011;3540;53.242;10.408;2023-04-06T13:05:44;7.17;;;5.67;;
6999;SDS011;3540;53.242;10.408;2023-04-06T13:08:11;9.43;;;5.80;;
6999;SDS011;3540;53.242;10.408;2023-04-06T13:10:37;10.27;;;6.30;;
6999;SDS011;3540;53.242;10.408;2023-04-06T13:13:03;8.60;;;6.40;;
6999;SDS011;3540;53.242;10.408;2023-04-06T13:15:29;8.47;;;6.10;;
6999;SDS011;3540;53.242;10.408;2023-04-06T13:17:57;10.07;;;6.47;;
6999;SDS011;3540;53.242;10.408;2023-04-06T13:20:22;8.03;;;5.97;;
6999;SDS011;3540;53.242;10.408;2023-04-06T13:22:50;11.83;;;6.47;;
6999;SDS011;3540;53.242;10.408;2023-04-06T13:25:15;10.33;;;6.10;;
6999;SDS011;3540;53.242;10.408;2023-04-06T13:27:41;7.17;;;5.60;;
6999;SDS011;3540;53.242;10.408;2023-04-06T13:30:11;7.10;;;5.87;;
6999;SDS011;3540;53.242;10.408;2023-04-06T13:32:38;12.13;;;6.47;;
6999;SDS011;3540;53.242;10.408;2023-04-06T13:35:03;19.60;;;6.67;;
6999;SDS011;3540;53.242;10.408;2023-04-06T13:37:31;7.57;;;5.77;;
6999;SDS011;3540;53.242;10.408;2023-04-06T13:39:57;11.73;;;6.27;;
6999;SDS011;3540;53.242;10.408;2023-04-06T13:42:22;9.13;;;5.73;;
6999;SDS011;3540;53.242;10.408;2023-04-06T13:44:48;8.70;;;5.83;;
6999;SDS011;3540;53.242;10.408;2023-04-06T13:47:15;7.93;;;5.90;;
6999;SDS011;3540;53.242;10.408;2023-04-06T13:49:41;10.17;;;5.63;;
6999;SDS011;3540;53.242;10.408;2023-04-06T13:52:07;8.33;;;5.53;;
6999;SDS011;3540;53.242;10.408;2023-04-06T13:54:34;9.97;;;5.57;;
6999;SDS011;3540;53.242;10.408;2023-04-06T13:57:00;6.90;;;5.90;;
6999;SDS011;3540;53.242;10.408;2023-04-06T13:59:31;7.77;;;6.07;;
6999;SDS011;3540;53.242;10.408;2023-04-06T14:01:57;11.20;;;5.53;;
6999;SDS011;3540;53.242;10.408;2023-04-06T14:04:23;7.50;;;5.87;;
6999;SDS011;3540;53.242;10.408;2023-04-06T14:06:49;10.13;;;5.70;;
6999;SDS011;3540;53.242;10.408;2023-04-06T14:09:14;7.33;;;5.67;;
6999;SDS011;3540;53.242;10.408;2023-04-06T14:11:40;7.00;;;5.70;;
6999;SDS011;3540;53.242;10.408;2023-04-06T14:14:05;10.33;;;5.73;;
6999;SDS011;3540;53.242;10.408;2023-04-06T14:16:31;7.63;;;5.90;;
6999;SDS011;3540;53.242;10.408;2023-04-06T14:18:57;10.10;;;6.00;;
6999;SDS011;3540;53.242;10.408;2023-04-06T14:21:23;9.43;;;5.90;;
6999;SDS011;3540;53.242;10.408;2023-04-06T14:23:49;7.80;;;5.90;;
6999;SDS011;3540;53.242;10.408;2023-04-06T14:26:15;7.17;;;5.57;;
6999;SDS011;3540;53.242;10.408;2023-04-06T14:28:41;7.80;;;5.60;;
6999;SDS011;3540;53.242;10.408;2023-04-06T14:31:11;9.03;;;5.83;;
6999;SDS011;3540;53.242;10.408;2023-04-06T14:33:40;9.43;;;6.00;;
6999;SDS011;3540;53.242;10.408;2023-04-06T14:36:07;7.50;;;5.30;;
6999;SDS011;3540;53.242;10.408;2023-04-06T14:38:33;9.17;;;6.00;;
6999;SDS011;3540;53.242;10.408;2023-04-06T14:40:59;12.10;;;7.80;;
6999;SDS011;3540;53.242;10.408;2023-04-06T14:43:25;11.13;;;6.00;;
6999;SDS011;3540;53.242;10.408;2023-04-06T14:45:51;9.43;;;5.73;;
6999;SDS011;3540;53.242;10.408;2023-04-06T14:48:17;13.10;;;5.90;;
6999;SDS011;3540;53.242;10.408;2023-04-06T14:50:53;8.53;;;5.90;;
6999;SDS011;3540;53.242;10.408;2023-04-06T14:53:20;6.87;;;5.67;;
6999;SDS011;3540;53.242;10.408;2023-04-06T14:55:46;8.13;;;5.63;;
6999;SDS011;3540;53.242;10.408;2023-04-06T14:58:11;7.27;;;5.90;;
6999;SDS011;3540;53.242;10.408;2023-04-06T15:00:38;8.60;;;6.07;;
6999;SDS011;3540;53.242;10.408;2023-04-06T15:03:04;7.80;;;5.60;;
6999;SDS011;3540;53.242;10.408;2023-04-06T15:05:29;8.60;;;6.10;;
6999;SDS011;3540;53.242;10.408;2023-04-06T15:07:56;8.83;;;5.83;;
6999;SDS011;3540;53.242;10.408;2023-04-06T15:10:22;6.67;;;5.57;;
6999;SDS011;3540;53.242;10.408;2023-04-06T15:12:47;8.70;;;5.57;;
6999;SDS011;3540;53.242;10.408;2023-04-06T15:15:13;7.63;;;5.60;;
6999;SDS011;3540;53.242;10.408;2023-04-06T15:17:39;10.97;;;5.80;;